createdAt,value
2018-09-28T00:00:57.822Z,8.20
2018-09-28T00:03:26.918Z,5.37
2018-09-28T00:05:56.440Z,3.33
2018-09-28T00:08:25.314Z,5.80
2018-09-28T00:10:54.239Z,4.60
2018-09-28T00:13:23.130Z,6.65
2018-09-28T00:15:52.064Z,5.30
2018-09-28T00:18:20.948Z,5.50
2018-09-28T00:20:49.864Z,2.92
2018-09-28T00:23:18.781Z,6.85
2018-09-28T00:25:47.707Z,6.95
2018-09-28T00:28:16.814Z,5.45
2018-09-28T00:30:45.730Z,7.67
2018-09-28T00:33:14.657Z,4.58
2018-09-28T00:35:43.610Z,6.75
2018-09-28T00:38:12.721Z,6.00
2018-09-28T00:40:41.628Z,8.00
2018-09-28T00:43:10.533Z,4.40
2018-09-28T00:45:39.449Z,4.87
2018-09-28T00:48:08.391Z,11.43
2018-09-28T00:50:37.285Z,3.85
2018-09-28T00:53:06.215Z,4.22
2018-09-28T00:55:35.487Z,4.25
2018-09-28T00:58:04.409Z,6.22
2018-09-28T01:00:33.325Z,7.78
2018-09-28T01:03:02.441Z,4.47
2018-09-28T01:05:31.369Z,8.03
2018-09-28T01:08:00.240Z,4.90
2018-09-28T01:10:29.111Z,6.92
2018-09-28T01:12:57.939Z,7.75
2018-09-28T01:15:26.770Z,6.08
2018-09-28T01:17:55.694Z,4.78
2018-09-28T01:20:24.612Z,5.33
2018-09-28T01:22:53.521Z,7.30
2018-09-28T01:25:22.501Z,4.40
2018-09-28T01:27:51.442Z,6.50
2018-09-28T01:30:20.368Z,4.10
2018-09-28T01:32:49.264Z,7.35
2018-09-28T01:35:18.168Z,5.47
2018-09-28T01:37:47.102Z,6.28
2018-09-28T01:40:16.119Z,6.05
2018-09-28T01:42:45.014Z,4.78
2018-09-28T01:45:13.950Z,4.25
2018-09-28T01:47:42.866Z,7.55
2018-09-28T01:50:11.778Z,8.90
2018-09-28T01:52:40.678Z,7.78
2018-09-28T01:55:09.592Z,7.12
2018-09-28T01:57:38.502Z,4.55
2018-09-28T02:00:07.782Z,6.03
2018-09-28T02:02:36.690Z,6.37
2018-09-28T02:05:05.634Z,5.62
2018-09-28T02:07:34.534Z,5.87
2018-09-28T02:10:03.478Z,4.12
2018-09-28T02:12:32.384Z,6.20
2018-09-28T02:15:01.465Z,3.55
2018-09-28T02:17:30.387Z,4.60
2018-09-28T02:19:59.495Z,5.10
2018-09-28T02:22:28.418Z,7.37
2018-09-28T02:24:57.355Z,5.62
2018-09-28T02:27:26.255Z,5.60
2018-09-28T02:29:55.196Z,4.35
2018-09-28T02:32:24.102Z,4.80
2018-09-28T02:34:53.067Z,6.37
2018-09-28T02:37:21.975Z,3.83
2018-09-28T02:39:50.896Z,7.40
2018-09-28T02:42:19.869Z,5.47
2018-09-28T02:44:48.876Z,9.28
2018-09-28T02:47:17.763Z,10.13
2018-09-28T02:49:46.707Z,5.00
2018-09-28T02:52:15.628Z,6.05
2018-09-28T02:54:44.523Z,4.85
2018-09-28T02:57:13.651Z,4.62
2018-09-28T02:59:42.598Z,7.78
2018-09-28T03:02:11.497Z,7.25
2018-09-28T03:04:40.431Z,4.37
2018-09-28T03:07:09.339Z,4.85
2018-09-28T03:09:38.267Z,5.33
2018-09-28T03:12:07.205Z,5.08
2018-09-28T03:14:36.150Z,4.05
2018-09-28T03:17:05.077Z,4.33
2018-09-28T03:19:34.146Z,6.05
2018-09-28T03:22:03.398Z,6.47
2018-09-28T03:24:32.329Z,6.30
2018-09-28T03:27:01.225Z,7.05
2018-09-28T03:29:30.157Z,5.92
2018-09-28T03:31:59.094Z,7.22
2018-09-28T03:34:28.018Z,7.12
2018-09-28T03:36:56.956Z,7.55
2018-09-28T03:39:25.874Z,3.90
2018-09-28T03:41:54.829Z,7.12
2018-09-28T03:44:23.918Z,5.47
2018-09-28T03:46:52.835Z,6.47
2018-09-28T03:49:21.752Z,7.37
2018-09-28T03:51:50.644Z,7.30
2018-09-28T03:54:19.762Z,8.00
2018-09-28T03:56:48.643Z,7.55
2018-09-28T03:59:17.566Z,6.10
2018-09-28T04:01:46.490Z,5.65
2018-09-28T04:04:15.419Z,7.33
2018-09-28T04:06:44.290Z,7.50
2018-09-28T04:09:13.203Z,5.87
2018-09-28T04:11:42.143Z,10.60
2018-09-28T04:14:11.064Z,6.37
2018-09-28T04:16:39.979Z,7.97
2018-09-28T04:19:08.873Z,6.92
2018-09-28T04:21:37.799Z,5.78
2018-09-28T04:24:06.868Z,5.92
2018-09-28T04:26:36.169Z,8.90
2018-09-28T04:29:05.095Z,5.83
2018-09-28T04:31:34.091Z,8.70
2018-09-28T04:34:03.210Z,7.85
2018-09-28T04:36:32.135Z,7.28
2018-09-28T04:39:01.064Z,7.87
2018-09-28T04:41:30.143Z,4.80
2018-09-28T04:43:59.095Z,5.70
2018-09-28T04:46:28.029Z,7.97
2018-09-28T04:48:57.096Z,6.62
2018-09-28T04:51:26.039Z,8.73
2018-09-28T04:53:54.945Z,6.10
2018-09-28T04:56:23.993Z,10.43
2018-09-28T04:58:53.277Z,7.00
2018-09-28T05:01:22.199Z,8.03
2018-09-28T05:03:51.123Z,7.83
2018-09-28T05:06:20.086Z,10.25
2018-09-28T05:08:48.998Z,8.63
2018-09-28T05:11:18.061Z,7.80
2018-09-28T05:13:47.024Z,10.65
2018-09-28T05:16:15.943Z,6.20
2018-09-28T05:18:44.920Z,5.60
2018-09-28T05:21:13.860Z,8.60
2018-09-28T05:23:42.782Z,7.25
2018-09-28T05:26:11.901Z,6.92
2018-09-28T05:28:40.848Z,5.62
2018-09-28T05:31:09.914Z,7.22
2018-09-28T05:33:38.932Z,9.23
2018-09-28T05:36:08.258Z,11.08
2018-09-28T05:38:37.170Z,9.43
2018-09-28T05:41:06.654Z,11.43
2018-09-28T05:43:35.613Z,11.70
2018-09-28T05:46:04.803Z,10.20
2018-09-28T05:48:33.736Z,8.95
2018-09-28T05:51:02.694Z,10.88
2018-09-28T05:53:31.670Z,8.68
2018-09-28T05:56:00.622Z,10.90
2018-09-28T05:58:35.022Z,11.48
2018-09-28T06:01:09.324Z,13.35
2018-09-28T06:03:42.478Z,10.03
2018-09-28T06:06:11.474Z,12.30
2018-09-28T06:08:40.400Z,11.75
2018-09-28T06:11:09.366Z,7.67
2018-09-28T06:13:38.330Z,10.10
2018-09-28T06:16:07.228Z,9.15
2018-09-28T06:18:36.299Z,10.03
2018-09-28T06:21:05.724Z,10.63
2018-09-28T06:23:34.868Z,9.08
2018-09-28T06:26:03.981Z,10.63
2018-09-28T06:28:33.083Z,10.13
2018-09-28T06:31:02.008Z,12.18
2018-09-28T06:33:30.957Z,10.35
2018-09-28T06:35:59.916Z,11.95
2018-09-28T06:38:29.062Z,11.25
2018-09-28T06:40:58.004Z,12.03
2018-09-28T06:43:26.920Z,11.48
2018-09-28T06:45:55.841Z,12.60
2018-09-28T06:48:24.819Z,14.90
2018-09-28T06:50:53.901Z,16.12
2018-09-28T06:53:22.861Z,15.35
2018-09-28T06:55:51.790Z,16.07
2018-09-28T06:58:21.114Z,13.58
2018-09-28T07:00:50.177Z,13.88
2018-09-28T07:03:19.105Z,12.47
2018-09-28T07:05:48.111Z,14.53
2018-09-28T07:08:17.576Z,16.77
2018-09-28T07:10:46.553Z,13.65
2018-09-28T07:13:15.494Z,12.55
2018-09-28T07:15:44.452Z,18.00
2018-09-28T07:18:13.454Z,13.62
2018-09-28T07:20:42.536Z,11.60
2018-09-28T07:23:11.426Z,14.45
2018-09-28T07:25:40.350Z,15.15
2018-09-28T07:28:09.263Z,15.18
2018-09-28T07:30:38.559Z,14.73
2018-09-28T07:33:07.672Z,13.10
2018-09-28T07:35:36.583Z,15.93
2018-09-28T07:38:05.901Z,13.55
2018-09-28T07:40:34.824Z,15.60
2018-09-28T07:43:04.146Z,17.98
2018-09-28T07:45:33.119Z,16.65
2018-09-28T07:48:02.091Z,16.40
2018-09-28T07:50:31.350Z,17.05
2018-09-28T07:53:00.308Z,16.80
2018-09-28T07:55:29.268Z,18.42
2018-09-28T07:57:58.230Z,18.80
2018-09-28T08:00:27.192Z,16.42
2018-09-28T08:02:56.213Z,19.57
2018-09-28T08:05:25.300Z,16.90
2018-09-28T08:07:54.233Z,16.20
2018-09-28T08:10:23.514Z,20.92
2018-09-28T08:12:52.502Z,18.05
2018-09-28T08:15:21.463Z,20.70
2018-09-28T08:17:50.448Z,26.82
2018-09-28T08:20:19.617Z,27.22
2018-09-28T08:22:48.576Z,29.15
2018-09-28T08:25:17.513Z,26.27
2018-09-28T08:27:46.480Z,28.25
2018-09-28T08:30:15.438Z,30.60
2018-09-28T08:32:44.543Z,30.37
2018-09-28T08:35:13.515Z,30.12
2018-09-28T08:37:42.425Z,30.23
2018-09-28T08:40:11.437Z,34.00
2018-09-28T08:42:40.381Z,34.33
2018-09-28T08:45:09.315Z,39.03
2018-09-28T08:47:38.225Z,35.38
2018-09-28T08:50:07.256Z,34.50
2018-09-28T08:52:36.218Z,34.48
2018-09-28T08:55:05.253Z,33.58
2018-09-28T08:57:34.180Z,34.33
2018-09-28T09:00:03.155Z,38.25
2018-09-28T09:02:32.115Z,36.40
2018-09-28T09:05:01.038Z,36.55
2018-09-28T09:07:29.977Z,33.18
2018-09-28T09:09:58.921Z,32.13
2018-09-28T09:12:27.831Z,35.30
2018-09-28T09:14:56.846Z,37.70
2018-09-28T09:17:25.761Z,36.98
2018-09-28T09:19:54.692Z,38.65
2018-09-28T09:22:23.642Z,36.50
2018-09-28T09:24:52.662Z,32.03
2018-09-28T09:27:21.571Z,37.70
2018-09-28T09:29:50.498Z,32.50
2018-09-28T09:32:19.430Z,32.70
2018-09-28T09:34:48.436Z,31.97
2018-09-28T09:37:17.389Z,34.92
2018-09-28T09:39:46.327Z,34.58
2018-09-28T09:42:15.282Z,36.03
2018-09-28T09:44:44.313Z,36.03
2018-09-28T09:47:13.268Z,31.52
2018-09-28T09:49:42.212Z,30.95
2018-09-28T09:52:11.286Z,33.98
2018-09-28T09:54:40.236Z,26.55
2018-09-28T09:57:09.218Z,27.60
2018-09-28T09:59:38.172Z,23.15
2018-09-28T10:02:12.836Z,26.10
2018-09-28T10:04:41.790Z,23.05
2018-09-28T10:07:10.730Z,22.93
2018-09-28T10:09:39.713Z,25.12
2018-09-28T10:12:08.892Z,25.75
2018-09-28T10:14:37.987Z,25.70
2018-09-28T10:17:07.152Z,26.23
2018-09-28T10:19:36.109Z,25.32
2018-09-28T10:22:05.552Z,25.32
2018-09-28T10:24:34.497Z,22.98
2018-09-28T10:27:03.517Z,26.25
2018-09-28T10:29:32.607Z,27.40
2018-09-28T10:32:01.546Z,27.05
2018-09-28T10:34:30.521Z,28.57
2018-09-28T10:36:59.667Z,24.07
2018-09-28T10:39:28.691Z,23.02
2018-09-28T10:41:57.769Z,24.92
2018-09-28T10:44:26.720Z,20.20
2018-09-28T10:46:55.677Z,21.90
2018-09-28T10:49:24.712Z,18.15
2018-09-28T10:51:53.900Z,22.00
2018-09-28T10:54:22.977Z,23.40
2018-09-28T10:56:52.134Z,20.45
2018-09-28T10:59:21.121Z,21.12
2018-09-28T11:01:50.093Z,22.60
2018-09-28T11:04:19.085Z,23.10
2018-09-28T11:06:48.247Z,19.55
2018-09-28T11:09:17.262Z,19.85
2018-09-28T11:11:46.378Z,19.65
2018-09-28T11:14:15.319Z,19.92
2018-09-28T11:16:44.265Z,19.17
2018-09-28T11:19:13.162Z,11.22
2018-09-28T11:21:42.139Z,5.87
2018-09-28T11:24:11.198Z,5.92
2018-09-28T11:26:40.107Z,5.85
2018-09-28T11:29:09.383Z,5.37
2018-09-28T11:31:38.378Z,6.78
2018-09-28T11:34:07.321Z,5.42
2018-09-28T11:36:36.327Z,5.72
2018-09-28T11:39:06.555Z,5.72
2018-09-28T11:41:35.651Z,2.08
2018-09-28T11:44:04.565Z,4.17
2018-09-28T11:46:33.470Z,6.67
2018-09-28T11:49:02.423Z,4.87
2018-09-28T11:51:31.564Z,5.70
2018-09-28T11:54:00.683Z,3.60
2018-09-28T11:56:29.621Z,6.67
2018-09-28T11:58:58.540Z,6.00
2018-09-28T12:01:27.475Z,3.83
2018-09-28T12:03:56.374Z,4.17
2018-09-28T12:06:25.326Z,6.40
2018-09-28T12:08:54.426Z,4.05
2018-09-28T12:11:23.460Z,5.42
2018-09-28T12:13:52.415Z,3.22
2018-09-28T12:16:21.324Z,4.25
2018-09-28T12:18:50.283Z,5.83
2018-09-28T12:21:19.413Z,5.53
2018-09-28T12:23:48.564Z,6.05
2018-09-28T12:26:17.448Z,6.40
2018-09-28T12:28:46.359Z,4.87
2018-09-28T12:31:15.261Z,4.85
2018-09-28T12:33:44.240Z,6.08
2018-09-28T12:36:13.368Z,6.78
2018-09-28T12:38:42.436Z,5.03
2018-09-28T12:41:11.403Z,7.25
2018-09-28T12:43:40.363Z,4.22
2018-09-28T12:46:09.257Z,4.90
2018-09-28T12:48:38.371Z,4.28
2018-09-28T12:51:07.751Z,6.60
2018-09-28T12:53:36.785Z,7.12
2018-09-28T12:56:06.291Z,5.30
2018-09-28T12:58:35.356Z,7.78
2018-09-28T13:01:04.888Z,6.08
2018-09-28T13:03:33.889Z,7.50
2018-09-28T13:06:02.885Z,6.15
2018-09-28T13:08:31.841Z,8.10
2018-09-28T13:11:00.943Z,5.17
2018-09-28T13:13:29.933Z,7.25
2018-09-28T13:15:58.849Z,4.08
2018-09-28T13:18:27.953Z,3.90
2018-09-28T13:20:57.368Z,4.37
2018-09-28T13:23:26.342Z,6.70
2018-09-28T13:25:55.301Z,5.20
2018-09-28T13:28:24.232Z,4.65
2018-09-28T13:30:53.204Z,5.35
2018-09-28T13:33:22.234Z,4.20
2018-09-28T13:35:51.157Z,5.22
2018-09-28T13:38:20.163Z,6.55
2018-09-28T13:40:49.261Z,8.75
2018-09-28T13:43:18.205Z,6.42
2018-09-28T13:45:47.100Z,4.47
2018-09-28T13:48:16.076Z,5.65
2018-09-28T13:50:45.175Z,6.53
2018-09-28T13:53:14.291Z,5.17
2018-09-28T13:55:43.254Z,5.35
2018-09-28T13:58:12.203Z,7.03
2018-09-28T14:00:41.428Z,5.62
2018-09-28T14:03:10.468Z,5.50
2018-09-28T14:05:39.535Z,8.33
2018-09-28T14:08:08.471Z,5.97
2018-09-28T14:10:37.612Z,3.83
2018-09-28T14:13:06.888Z,5.15
2018-09-28T14:15:37.550Z,6.00
2018-09-28T14:18:06.495Z,6.72
2018-09-28T14:20:35.592Z,7.15
2018-09-28T14:23:04.759Z,4.97
2018-09-28T14:25:33.669Z,7.03
2018-09-28T14:28:02.713Z,4.95
2018-09-28T14:30:31.823Z,5.60
2018-09-28T14:33:00.986Z,8.08
2018-09-28T14:35:29.892Z,3.83
2018-09-28T14:37:58.835Z,5.05
2018-09-28T14:40:27.758Z,5.95
2018-09-28T14:42:56.694Z,7.33
2018-09-28T14:45:25.599Z,6.35
2018-09-28T14:47:54.611Z,7.17
2018-09-28T14:50:23.559Z,6.75
2018-09-28T14:52:53.131Z,4.17
2018-09-28T14:55:22.073Z,6.67
2018-09-28T14:57:51.034Z,8.70
2018-09-28T15:00:21.218Z,4.40
2018-09-28T15:02:50.165Z,4.57
2018-09-28T15:05:19.239Z,7.55
2018-09-28T15:07:48.005Z,4.10
2018-09-28T15:10:17.077Z,5.00
2018-09-28T15:12:46.207Z,3.90
2018-09-28T15:15:15.260Z,5.25
2018-09-28T15:17:44.178Z,4.20
2018-09-28T15:20:13.529Z,5.08
2018-09-28T15:22:42.516Z,6.90
2018-09-28T15:25:11.455Z,3.62
2018-09-28T15:27:40.387Z,5.00
2018-09-28T15:30:09.690Z,4.12
2018-09-28T15:32:38.774Z,5.70
2018-09-28T15:35:07.804Z,5.78
2018-09-28T15:37:36.839Z,5.15
2018-09-28T15:40:06.114Z,6.20
2018-09-28T15:42:35.090Z,11.75
2018-09-28T15:45:04.434Z,24.95
2018-09-28T15:47:33.787Z,6.62
2018-09-28T15:50:02.892Z,7.35
2018-09-28T15:52:31.785Z,5.08
2018-09-28T15:55:00.716Z,6.70
2018-09-28T15:57:29.792Z,10.43
2018-09-28T15:59:58.697Z,6.70
2018-09-28T16:02:27.678Z,4.25
2018-09-28T16:04:56.572Z,2.98
2018-09-28T16:07:25.572Z,5.28
2018-09-28T16:09:54.489Z,9.33
2018-09-28T16:12:23.494Z,7.95
2018-09-28T16:14:52.463Z,4.22
2018-09-28T16:17:23.074Z,3.75
2018-09-28T16:19:51.992Z,3.62
2018-09-28T16:22:20.915Z,3.37
2018-09-28T16:24:49.867Z,4.25
2018-09-28T16:27:18.966Z,2.45
2018-09-28T16:29:48.052Z,4.00
2018-09-28T16:32:16.929Z,6.85
2018-09-28T16:34:45.875Z,7.58
2018-09-28T16:37:14.810Z,3.25
2018-09-28T16:39:43.741Z,6.90
2018-09-28T16:42:12.700Z,3.42
2018-09-28T16:44:41.654Z,5.78
2018-09-28T16:47:10.863Z,4.70
2018-09-28T16:49:39.829Z,13.00
2018-09-28T16:52:08.777Z,10.75
2018-09-28T16:54:37.714Z,7.72
2018-09-28T16:57:06.808Z,10.70
2018-09-28T16:59:35.795Z,7.58
2018-09-28T17:02:04.882Z,5.62
2018-09-28T17:04:33.829Z,7.97
2018-09-28T17:07:02.802Z,5.20
2018-09-28T17:09:31.781Z,5.10
2018-09-28T17:12:00.718Z,7.53
2018-09-28T17:14:29.683Z,7.15
2018-09-28T17:16:58.857Z,8.95
2018-09-28T17:19:27.789Z,3.80
2018-09-28T17:21:56.750Z,3.92
2018-09-28T17:24:25.674Z,5.85
2018-09-28T17:26:54.629Z,11.50
2018-09-28T17:29:23.598Z,16.37
2018-09-28T17:31:52.555Z,12.93
2018-09-28T17:34:21.514Z,35.48
2018-09-28T17:36:50.448Z,24.82
2018-09-28T17:39:19.720Z,14.83
2018-09-28T17:41:48.627Z,6.35
2018-09-28T17:44:17.543Z,5.83
2018-09-28T17:46:46.505Z,13.00
2018-09-28T17:49:15.460Z,8.08
2018-09-28T17:51:44.448Z,11.05
2018-09-28T17:54:13.363Z,22.45
2018-09-28T17:56:42.302Z,16.50
2018-09-28T17:59:11.568Z,19.23
2018-09-28T18:01:40.535Z,12.55
2018-09-28T18:04:09.495Z,17.82
2018-09-28T18:06:44.860Z,25.77
2018-09-28T18:09:13.858Z,33.73
2018-09-28T18:11:42.822Z,27.55
2018-09-28T18:14:11.859Z,27.17
2018-09-28T18:16:40.982Z,20.23
2018-09-28T18:19:10.073Z,16.82
2018-09-28T18:21:39.166Z,9.73
2018-09-28T18:24:08.487Z,7.50
2018-09-28T18:26:37.497Z,6.05
2018-09-28T18:29:06.809Z,10.08
2018-09-28T18:31:35.750Z,7.08
2018-09-28T18:34:04.716Z,7.78
2018-09-28T18:36:33.625Z,5.78
2018-09-28T18:39:02.607Z,5.75
2018-09-28T18:41:31.533Z,7.78
2018-09-28T18:44:00.470Z,9.15
2018-09-28T18:46:29.400Z,5.87
2018-09-28T18:48:58.313Z,8.18
2018-09-28T18:51:27.263Z,9.45
2018-09-28T18:53:56.211Z,4.70
2018-09-28T18:56:25.130Z,6.97
2018-09-28T18:58:54.138Z,7.95
2018-09-28T19:01:23.218Z,9.18
2018-09-28T19:03:52.166Z,5.72
2018-09-28T19:06:21.193Z,11.75
2018-09-28T19:08:50.549Z,10.20
2018-09-28T19:11:19.823Z,6.28
2018-09-28T19:13:48.781Z,5.37
2018-09-28T19:16:17.691Z,6.33
2018-09-28T19:18:46.651Z,6.55
2018-09-28T19:21:15.610Z,9.15
2018-09-28T19:23:44.750Z,7.67
2018-09-28T19:26:13.710Z,7.28
2018-09-28T19:28:42.640Z,13.45
2018-09-28T19:31:11.586Z,11.95
2018-09-28T19:33:40.509Z,9.20
2018-09-28T19:36:09.427Z,8.33
2018-09-28T19:38:38.771Z,10.95
2018-09-28T19:41:07.671Z,24.80
2018-09-28T19:43:36.630Z,28.00
2018-09-28T19:46:05.583Z,14.15
2018-09-28T19:48:34.545Z,8.35
2018-09-28T19:51:03.534Z,9.33
2018-09-28T19:53:32.459Z,10.65
2018-09-28T19:56:01.421Z,14.70
2018-09-28T19:58:30.353Z,12.63
2018-09-28T20:00:59.273Z,12.88
2018-09-28T20:03:28.333Z,12.68
2018-09-28T20:05:57.497Z,15.65
2018-09-28T20:08:26.471Z,12.68
2018-09-28T20:10:55.414Z,7.87
2018-09-28T20:13:24.502Z,11.22
2018-09-28T20:15:53.459Z,18.67
2018-09-28T20:18:22.402Z,16.80
2018-09-28T20:20:51.357Z,20.90
2018-09-28T20:23:20.331Z,18.02
2018-09-28T20:25:49.416Z,13.60
2018-09-28T20:28:18.337Z,13.83
2018-09-28T20:30:47.282Z,7.78
2018-09-28T20:33:16.218Z,10.55
2018-09-28T20:35:45.184Z,9.53
2018-09-28T20:38:14.108Z,9.65
2018-09-28T20:40:43.046Z,7.92
2018-09-28T20:43:11.960Z,8.83
2018-09-28T20:45:40.857Z,6.87
2018-09-28T20:48:09.781Z,7.28
2018-09-28T20:50:39.179Z,8.48
2018-09-28T20:53:08.154Z,7.95
2018-09-28T20:55:37.119Z,5.37
2018-09-28T20:58:06.067Z,4.10
2018-09-28T21:00:34.992Z,6.42
2018-09-28T21:03:03.931Z,8.08
2018-09-28T21:05:32.888Z,6.28
2018-09-28T21:08:01.215Z,8.15
2018-09-28T21:10:30.141Z,4.25
2018-09-28T21:12:58.517Z,6.12
2018-09-28T21:15:27.671Z,6.42
2018-09-28T21:17:56.589Z,5.62
2018-09-28T21:20:25.531Z,7.00
2018-09-28T21:22:54.485Z,7.92
2018-09-28T21:25:23.383Z,6.08
2018-09-28T21:27:52.277Z,8.48
2018-09-28T21:30:21.189Z,8.00
2018-09-28T21:32:49.551Z,8.78
2018-09-28T21:35:18.528Z,6.85
2018-09-28T21:37:47.593Z,9.73
2018-09-28T21:40:16.686Z,7.92
2018-09-28T21:42:45.884Z,6.70
2018-09-28T21:45:14.806Z,7.20
2018-09-28T21:47:43.699Z,6.00
2018-09-28T21:50:12.667Z,8.48
2018-09-28T21:52:41.624Z,6.37
2018-09-28T21:55:10.747Z,7.53
2018-09-28T21:57:39.638Z,6.00
2018-09-28T22:00:08.906Z,6.08
2018-09-28T22:02:37.831Z,5.40
2018-09-28T22:05:06.758Z,8.25
2018-09-28T22:07:35.640Z,6.83
2018-09-28T22:10:05.321Z,7.25
2018-09-28T22:12:33.766Z,8.10
2018-09-28T22:15:02.211Z,8.40
2018-09-28T22:17:31.138Z,9.10
2018-09-28T22:20:00.134Z,6.55
2018-09-28T22:22:28.475Z,7.33
2018-09-28T22:24:57.379Z,4.97
2018-09-28T22:27:26.358Z,7.17
2018-09-28T22:29:55.434Z,7.97
2018-09-28T22:32:23.830Z,5.50
2018-09-28T22:34:52.214Z,7.57
2018-09-28T22:37:21.167Z,7.17
2018-09-28T22:39:49.503Z,8.27
2018-09-28T22:42:18.427Z,6.10
2018-09-28T22:44:46.827Z,7.40
2018-09-28T22:47:15.168Z,9.73
2018-09-28T22:49:43.562Z,7.50
2018-09-28T22:52:11.916Z,9.13
2018-09-28T22:54:40.277Z,6.42
2018-09-28T22:57:08.662Z,6.57
2018-09-28T22:59:37.000Z,3.97
2018-09-28T23:02:05.362Z,4.83
2018-09-28T23:04:34.277Z,9.78
2018-09-28T23:07:02.648Z,5.97
2018-09-28T23:09:31.051Z,6.67
2018-09-28T23:11:59.437Z,8.23
2018-09-28T23:14:28.346Z,6.90
2018-09-28T23:16:57.101Z,10.77
2018-09-28T23:19:26.163Z,9.28
2018-09-28T23:21:54.529Z,6.00
2018-09-28T23:24:22.873Z,6.30
2018-09-28T23:26:51.253Z,7.93
2018-09-28T23:29:20.173Z,4.70
2018-09-28T23:31:48.553Z,7.47
2018-09-28T23:34:16.892Z,5.70
2018-09-28T23:36:45.259Z,6.53
2018-09-28T23:39:13.625Z,7.37
2018-09-28T23:41:42.541Z,7.25
2018-09-28T23:44:11.523Z,7.70
2018-09-28T23:46:40.421Z,7.40
2018-09-28T23:49:09.109Z,6.77
2018-09-28T23:51:37.495Z,9.70
2018-09-28T23:54:06.283Z,5.23
2018-09-28T23:56:34.727Z,7.37
2018-09-28T23:59:03.249Z,5.40
